createdAt,value
2023-04-23T00:00:36.546Z,2.50
2023-04-23T00:03:10.315Z,2.90
2023-04-23T00:05:38.860Z,3.40
2023-04-23T00:08:07.552Z,2.90
2023-04-23T00:10:35.614Z,4.23
2023-04-23T00:13:04.172Z,2.50
2023-04-23T00:15:33.990Z,2.70
2023-04-23T00:18:01.728Z,3.10
2023-04-23T00:20:29.453Z,2.70
2023-04-23T00:22:57.528Z,2.70
2023-04-23T00:25:25.206Z,2.67
2023-04-23T00:27:52.922Z,2.93
2023-04-23T00:30:20.813Z,3.50
2023-04-23T00:32:49.966Z,3.13
2023-04-23T00:35:18.456Z,2.70
2023-04-23T00:37:46.233Z,3.40
2023-04-23T00:40:14.579Z,3.80
2023-04-23T00:42:42.480Z,3.63
2023-04-23T00:45:12.197Z,2.83
2023-04-23T00:47:41.805Z,3.30
2023-04-23T00:50:11.523Z,3.10
2023-04-23T00:52:40.683Z,3.30
2023-04-23T00:55:09.440Z,3.30
2023-04-23T00:57:38.524Z,3.30
2023-04-23T01:00:07.947Z,3.27
2023-04-23T01:02:36.526Z,2.60
2023-04-23T01:05:06.640Z,3.40
2023-04-23T01:07:36.668Z,3.10
2023-04-23T01:10:05.656Z,4.17
2023-04-23T01:12:34.149Z,3.93
2023-04-23T01:15:02.016Z,3.17
2023-04-23T01:17:29.908Z,3.73
2023-04-23T01:19:58.033Z,3.00
2023-04-23T01:22:27.150Z,3.03
2023-04-23T01:24:55.750Z,3.10
2023-04-23T01:27:24.869Z,3.70
2023-04-23T01:29:53.112Z,3.27
2023-04-23T01:32:21.621Z,3.60
2023-04-23T01:34:50.011Z,3.73
2023-04-23T01:37:18.278Z,2.93
2023-04-23T01:39:47.330Z,3.20
2023-04-23T01:42:15.052Z,3.40
2023-04-23T01:44:43.066Z,3.40
2023-04-23T01:47:11.102Z,3.20
2023-04-23T01:49:38.945Z,3.43
2023-04-23T01:52:06.657Z,3.73
2023-04-23T01:54:34.393Z,3.23
2023-04-23T01:57:03.853Z,3.90
2023-04-23T01:59:31.650Z,3.33
2023-04-23T02:01:59.461Z,3.07
2023-04-23T02:04:28.141Z,3.00
2023-04-23T02:06:55.970Z,3.47
2023-04-23T02:09:23.752Z,3.60
2023-04-23T02:11:51.545Z,4.10
2023-04-23T02:14:20.879Z,2.73
2023-04-23T02:16:49.604Z,3.17
2023-04-23T02:19:17.847Z,3.23
2023-04-23T02:21:45.637Z,3.00
2023-04-23T02:24:13.391Z,3.40
2023-04-23T02:26:41.102Z,3.37
2023-04-23T02:29:08.828Z,4.10
2023-04-23T02:31:37.953Z,3.50
2023-04-23T02:34:05.786Z,3.40
2023-04-23T02:36:33.494Z,3.40
2023-04-23T02:39:01.227Z,3.10
2023-04-23T02:41:28.988Z,3.40
2023-04-23T02:43:56.715Z,2.40
2023-04-23T02:46:24.430Z,3.30
2023-04-23T02:48:53.512Z,2.97
2023-04-23T02:51:21.271Z,3.77
2023-04-23T02:53:48.985Z,3.57
2023-04-23T02:56:16.692Z,3.47
2023-04-23T02:58:44.481Z,3.23
2023-04-23T03:01:12.229Z,3.30
2023-04-23T03:03:40.587Z,3.27
2023-04-23T03:06:09.865Z,3.27
2023-04-23T03:08:37.596Z,3.50
2023-04-23T03:11:05.311Z,3.50
2023-04-23T03:13:33.044Z,3.43
2023-04-23T03:16:00.896Z,3.30
2023-04-23T03:18:28.706Z,2.97
2023-04-23T03:20:56.461Z,3.67
2023-04-23T03:23:25.709Z,3.40
2023-04-23T03:25:53.410Z,4.30
2023-04-23T03:28:21.146Z,3.57
2023-04-23T03:30:49.081Z,3.83
2023-04-23T03:33:16.833Z,3.37
2023-04-23T03:35:44.757Z,4.13
2023-04-23T03:38:12.478Z,4.40
2023-04-23T03:40:41.590Z,4.40
2023-04-23T03:43:09.346Z,4.20
2023-04-23T03:45:37.245Z,4.60
2023-04-23T03:48:05.439Z,4.83
2023-04-23T03:50:34.395Z,4.50
2023-04-23T03:53:02.338Z,4.90
2023-04-23T03:55:30.063Z,3.73
2023-04-23T03:58:01.592Z,4.53
2023-04-23T04:00:29.526Z,5.17
2023-04-23T04:02:57.431Z,5.13
2023-04-23T04:05:25.465Z,5.13
2023-04-23T04:07:53.290Z,5.77
2023-04-23T04:10:22.423Z,7.10
2023-04-23T04:12:50.410Z,7.77
2023-04-23T04:15:20.743Z,7.53
2023-04-23T04:17:49.020Z,6.97
2023-04-23T04:20:16.840Z,7.70
2023-04-23T04:22:44.565Z,9.03
2023-04-23T04:25:12.397Z,8.20
2023-04-23T04:27:41.368Z,8.47
2023-04-23T04:30:10.860Z,8.40
2023-04-23T04:32:40.427Z,8.70
2023-04-23T04:35:09.740Z,9.97
2023-04-23T04:37:37.437Z,10.87
2023-04-23T04:40:08.219Z,10.47
2023-04-23T04:42:36.247Z,9.87
2023-04-23T04:45:04.507Z,10.00
2023-04-23T04:47:32.293Z,10.33
2023-04-23T04:50:01.342Z,9.50
2023-04-23T04:52:29.049Z,10.73
2023-04-23T04:54:56.762Z,10.13
2023-04-23T04:57:24.569Z,9.43
2023-04-23T04:59:52.288Z,8.00
2023-04-23T05:02:21.565Z,9.10
2023-04-23T05:04:49.808Z,8.80
2023-04-23T05:07:18.855Z,8.50
2023-04-23T05:09:46.637Z,7.97
2023-04-23T05:12:14.359Z,9.40
2023-04-23T05:14:42.210Z,9.10
2023-04-23T05:17:10.168Z,9.10
2023-04-23T05:19:37.888Z,8.17
2023-04-23T05:22:05.828Z,9.50
2023-04-23T05:24:34.883Z,9.70
2023-04-23T05:27:02.629Z,9.23
2023-04-23T05:29:30.350Z,9.90
2023-04-23T05:31:58.159Z,10.87
2023-04-23T05:34:25.901Z,9.87
2023-04-23T05:36:53.652Z,11.00
2023-04-23T05:39:21.395Z,12.10
2023-04-23T05:41:50.512Z,11.20
2023-04-23T05:44:20.441Z,11.20
2023-04-23T05:46:48.145Z,11.70
2023-04-23T05:49:16.077Z,11.70
2023-04-23T05:51:45.417Z,10.90
2023-04-23T05:54:14.340Z,9.80
2023-04-23T05:56:42.022Z,8.10
2023-04-23T05:59:11.303Z,7.57
2023-04-23T06:01:39.114Z,8.00
2023-04-23T06:04:07.065Z,6.50
2023-04-23T06:06:35.010Z,7.43
2023-04-23T06:09:02.767Z,7.97
2023-04-23T06:11:32.049Z,8.87
2023-04-23T06:13:59.846Z,8.70
2023-04-23T06:16:29.495Z,9.70
2023-04-23T06:18:57.571Z,10.60
2023-04-23T06:21:25.591Z,12.00
2023-04-23T06:23:53.300Z,10.93
2023-04-23T06:26:21.018Z,12.00
2023-04-23T06:28:48.724Z,11.23
2023-04-23T06:31:16.584Z,13.00
2023-04-23T06:33:45.710Z,12.17
2023-04-23T06:36:14.660Z,11.57
2023-04-23T06:38:42.407Z,12.23
2023-04-23T06:41:10.176Z,13.63
2023-04-23T06:43:37.875Z,15.60
2023-04-23T06:46:05.648Z,15.63
2023-04-23T06:48:33.660Z,15.20
2023-04-23T06:51:02.921Z,15.10
2023-04-23T06:53:30.643Z,16.30
2023-04-23T06:55:58.363Z,16.03
2023-04-23T06:58:31.098Z,16.97
2023-04-23T07:01:00.765Z,17.40
2023-04-23T07:03:29.188Z,17.37
2023-04-23T07:05:57.007Z,18.30
2023-04-23T07:08:26.135Z,18.77
2023-04-23T07:10:54.211Z,20.00
2023-04-23T07:13:21.922Z,20.30
2023-04-23T07:15:49.810Z,21.30
2023-04-23T07:18:17.710Z,19.50
2023-04-23T07:20:45.441Z,21.90
2023-04-23T07:23:13.287Z,22.27
2023-04-23T07:25:42.331Z,21.17
2023-04-23T07:28:10.177Z,22.47
2023-04-23T07:30:37.986Z,21.23
2023-04-23T07:33:05.774Z,21.90
2023-04-23T07:35:33.534Z,22.17
2023-04-23T07:38:01.253Z,21.83
2023-04-23T07:40:30.169Z,21.90
2023-04-23T07:42:59.630Z,20.27
2023-04-23T07:45:27.429Z,21.63
2023-04-23T07:47:55.145Z,21.40
2023-04-23T07:50:23.065Z,21.20
2023-04-23T07:52:50.824Z,22.00
2023-04-23T07:55:20.260Z,19.53
2023-04-23T07:57:47.945Z,19.27
2023-04-23T08:00:19.031Z,17.70
2023-04-23T08:02:48.203Z,18.30
2023-04-23T08:05:16.223Z,17.07
2023-04-23T08:07:43.972Z,13.90
2023-04-23T08:10:11.876Z,10.13
2023-04-23T08:12:39.654Z,7.32
2023-04-23T08:15:08.263Z,7.13
2023-04-23T08:17:37.540Z,6.70
2023-04-23T08:20:07.356Z,6.17
2023-04-23T08:22:35.161Z,5.80
2023-04-23T08:25:02.902Z,4.60
2023-04-23T08:27:30.851Z,4.60
2023-04-23T08:29:58.642Z,4.20
2023-04-23T08:32:26.414Z,3.87
2023-04-23T08:34:55.546Z,5.33
2023-04-23T08:37:31.044Z,5.03
2023-04-23T08:39:59.449Z,4.60
2023-04-23T08:42:38.172Z,4.73
2023-04-23T08:45:07.388Z,3.80
2023-04-23T08:47:36.757Z,3.50
2023-04-23T08:50:07.015Z,4.70
2023-04-23T08:52:36.061Z,4.30
2023-04-23T08:55:12.499Z,3.83
2023-04-23T08:57:41.703Z,4.00
2023-04-23T09:00:11.527Z,4.00
2023-04-23T09:02:42.014Z,4.23
2023-04-23T09:05:12.582Z,4.07
2023-04-23T09:07:41.628Z,3.17
2023-04-23T09:10:12.486Z,4.00
2023-04-23T09:12:42.563Z,4.10
2023-04-23T09:15:12.587Z,3.90
2023-04-23T09:17:43.793Z,3.43
2023-04-23T09:20:15.117Z,4.50
2023-04-23T09:22:46.574Z,4.07
2023-04-23T09:25:16.499Z,3.77
2023-04-23T09:27:45.105Z,3.90
2023-04-23T09:30:13.678Z,4.57
2023-04-23T09:32:43.054Z,4.30
2023-04-23T09:35:15.027Z,5.07
2023-04-23T09:37:44.955Z,4.00
2023-04-23T09:40:15.216Z,4.03
2023-04-23T09:42:50.761Z,3.70
2023-04-23T09:45:18.766Z,3.87
2023-04-23T09:47:51.045Z,4.23
2023-04-23T09:50:20.520Z,3.03
2023-04-23T09:52:56.198Z,3.60
2023-04-23T09:55:30.650Z,3.37
2023-04-23T09:57:59.585Z,3.23
2023-04-23T10:00:30.616Z,3.33
2023-04-23T10:03:01.482Z,2.70
2023-04-23T10:05:37.275Z,3.47
2023-04-23T10:08:14.282Z,2.97
2023-04-23T10:13:13.676Z,3.00
2023-04-23T10:15:41.527Z,3.03
2023-04-23T10:18:09.560Z,3.20
2023-04-23T10:20:38.646Z,3.33
2023-04-23T10:23:07.348Z,2.87
2023-04-23T10:25:35.902Z,2.93
2023-04-23T10:28:04.777Z,3.07
2023-04-23T10:30:33.230Z,3.20
2023-04-23T10:33:02.269Z,3.07
2023-04-23T10:35:30.237Z,3.20
2023-04-23T10:37:59.720Z,2.83
2023-04-23T10:40:33.212Z,2.63
2023-04-23T10:43:01.667Z,3.10
2023-04-23T10:45:32.437Z,2.57
2023-04-23T10:48:00.607Z,3.07
2023-04-23T10:50:30.375Z,3.30
2023-04-23T10:52:59.634Z,2.23
2023-04-23T10:55:29.509Z,2.50
2023-04-23T10:58:02.953Z,2.83
2023-04-23T11:00:45.754Z,2.50
2023-04-23T11:03:33.946Z,2.90
2023-04-23T11:06:03.320Z,1.93
2023-04-23T11:08:33.396Z,2.43
2023-04-23T11:11:02.465Z,2.23
2023-04-23T11:13:30.853Z,1.63
2023-04-23T11:16:14.858Z,2.13
2023-04-23T11:19:03.519Z,2.03
2023-04-23T11:22:00.849Z,2.27
2023-04-23T11:24:32.016Z,2.03
2023-04-23T11:27:01.173Z,2.53
2023-04-23T11:29:29.418Z,1.83
2023-04-23T11:32:10.327Z,2.90
2023-04-23T11:34:39.977Z,2.30
2023-04-23T11:37:10.970Z,2.50
2023-04-23T11:39:40.631Z,2.57
2023-04-23T11:42:11.024Z,2.10
2023-04-23T11:44:39.737Z,2.10
2023-04-23T11:47:14.978Z,1.70
2023-04-23T11:49:44.894Z,1.97
2023-04-23T11:52:13.699Z,1.90
2023-04-23T11:54:42.571Z,2.10
2023-04-23T11:57:10.950Z,2.33
2023-04-23T11:59:38.823Z,1.90
2023-04-23T12:02:06.602Z,2.03
2023-04-23T12:04:40.349Z,1.63
2023-04-23T12:07:19.662Z,1.90
2023-04-23T12:09:53.811Z,1.90
2023-04-23T12:12:21.913Z,2.13
2023-04-23T12:14:49.667Z,1.70
2023-04-23T12:17:22.213Z,2.00
2023-04-23T12:19:51.546Z,2.20
2023-04-23T12:22:27.152Z,1.77
2023-04-23T12:24:55.369Z,2.03
2023-04-23T12:27:23.766Z,1.77
2023-04-23T12:30:00.915Z,2.00
2023-04-23T12:32:28.663Z,2.00
2023-04-23T12:34:58.120Z,2.63
2023-04-23T12:37:27.391Z,2.07
2023-04-23T12:39:56.782Z,2.37
2023-04-23T12:42:24.961Z,2.00
2023-04-23T12:44:55.557Z,1.60
2023-04-23T12:47:23.648Z,2.03
2023-04-23T12:49:53.341Z,2.40
2023-04-23T12:52:22.868Z,1.87
2023-04-23T12:54:52.638Z,2.13
2023-04-23T12:57:23.140Z,1.87
2023-04-23T12:59:54.732Z,2.00
2023-04-23T13:02:23.111Z,2.03
2023-04-23T13:04:50.956Z,1.77
2023-04-23T13:07:18.827Z,1.87
2023-04-23T13:09:47.963Z,1.97
2023-04-23T13:12:15.755Z,2.10
2023-04-23T13:14:43.449Z,1.67
2023-04-23T13:17:11.284Z,1.60
2023-04-23T13:19:39.784Z,1.80
2023-04-23T13:22:07.967Z,1.73
2023-04-23T13:24:36.000Z,2.10
2023-04-23T13:27:10.683Z,1.80
2023-04-23T13:29:40.240Z,1.77
2023-04-23T13:32:08.340Z,2.30
2023-04-23T13:34:36.072Z,1.60
2023-04-23T13:37:05.754Z,2.10
2023-04-23T13:39:33.544Z,2.40
2023-04-23T13:42:08.929Z,2.03
2023-04-23T13:44:38.889Z,2.23
2023-04-23T13:47:07.170Z,2.50
2023-04-23T13:49:35.067Z,2.30
2023-04-23T13:52:06.534Z,2.13
2023-04-23T13:54:35.493Z,2.07
2023-04-23T13:57:03.627Z,2.27
2023-04-23T13:59:31.441Z,2.37
2023-04-23T14:02:00.888Z,2.20
2023-04-23T14:04:31.589Z,2.23
2023-04-23T14:06:59.349Z,2.03
2023-04-23T14:09:27.278Z,2.37
2023-04-23T14:11:55.046Z,2.40
2023-04-23T14:14:22.795Z,2.30
2023-04-23T14:16:50.958Z,2.30
2023-04-23T14:19:19.991Z,2.33
2023-04-23T14:21:47.828Z,2.00
2023-04-23T14:24:19.435Z,1.93
2023-04-23T14:26:49.854Z,2.20
2023-04-23T14:29:26.399Z,2.60
2023-04-23T14:31:54.221Z,2.10
2023-04-23T14:34:23.459Z,2.27
2023-04-23T14:36:53.147Z,2.33
2023-04-23T14:39:23.084Z,1.93
2023-04-23T14:41:50.773Z,1.97
2023-04-23T14:44:18.557Z,2.57
2023-04-23T14:46:46.365Z,2.20
2023-04-23T14:49:14.239Z,2.40
2023-04-23T14:51:43.269Z,2.40
2023-04-23T14:54:11.250Z,2.80
2023-04-23T14:56:39.075Z,2.40
2023-04-23T14:59:06.780Z,2.50
2023-04-23T15:01:37.695Z,2.67
2023-04-23T15:04:05.592Z,2.10
2023-04-23T15:06:34.658Z,2.27
2023-04-23T15:09:03.731Z,2.70
2023-04-23T15:11:32.833Z,2.67
2023-04-23T15:14:04.519Z,2.80
2023-04-23T15:19:06.757Z,2.90
2023-04-23T15:21:34.572Z,2.67
2023-04-23T15:24:03.590Z,2.50
2023-04-23T15:26:32.654Z,2.20
2023-04-23T15:29:00.845Z,2.67
2023-04-23T15:31:28.678Z,2.47
2023-04-23T15:33:56.780Z,2.70
2023-04-23T15:36:24.538Z,2.67
2023-04-23T15:38:52.264Z,2.10
2023-04-23T15:41:21.583Z,2.40
2023-04-23T15:43:50.394Z,2.70
2023-04-23T15:46:18.302Z,2.20
2023-04-23T15:48:46.077Z,2.63
2023-04-23T15:51:13.888Z,2.50
2023-04-23T15:53:41.680Z,2.77
2023-04-23T15:56:09.369Z,2.20
2023-04-23T15:58:38.456Z,2.67
2023-04-23T16:01:07.620Z,2.40
2023-04-23T16:03:35.522Z,2.40
2023-04-23T16:06:04.509Z,2.80
2023-04-23T16:08:32.603Z,2.60
2023-04-23T16:11:00.479Z,2.77
2023-04-23T16:13:28.923Z,2.40
2023-04-23T16:15:58.145Z,2.50
2023-04-23T16:18:25.910Z,2.20
2023-04-23T16:20:53.663Z,2.90
2023-04-23T16:23:21.479Z,2.70
2023-04-23T16:25:49.610Z,2.17
2023-04-23T16:28:17.632Z,2.80
2023-04-23T16:30:45.583Z,2.10
2023-04-23T16:33:14.778Z,2.93
2023-04-23T16:35:42.564Z,2.40
2023-04-23T16:38:11.226Z,3.20
2023-04-23T16:40:39.719Z,3.10
2023-04-23T16:43:07.427Z,2.73
2023-04-23T16:45:35.384Z,3.60
2023-04-23T16:48:03.080Z,3.23
2023-04-23T16:50:32.239Z,3.40
2023-04-23T16:53:03.009Z,2.87
2023-04-23T16:55:30.800Z,3.23
2023-04-23T16:57:58.520Z,2.80
2023-04-23T17:00:26.415Z,3.37
2023-04-23T17:02:54.289Z,3.00
2023-04-23T17:05:24.352Z,3.50
2023-04-23T17:07:53.637Z,3.67
2023-04-23T17:10:21.411Z,3.10
2023-04-23T17:12:50.169Z,3.90
2023-04-23T17:15:18.132Z,3.87
2023-04-23T17:17:45.863Z,3.27
2023-04-23T17:20:13.579Z,2.47
2023-04-23T17:22:41.499Z,3.10
2023-04-23T17:25:11.055Z,3.17
2023-04-23T17:27:38.878Z,3.60
2023-04-23T17:30:07.944Z,2.87
2023-04-23T17:32:35.825Z,3.03
2023-04-23T17:35:10.328Z,3.17
2023-04-23T17:37:39.168Z,3.10
2023-04-23T17:40:09.603Z,3.73
2023-04-23T17:42:38.672Z,3.20
2023-04-23T17:45:07.298Z,5.47
2023-04-23T17:47:35.242Z,3.93
2023-04-23T17:50:02.984Z,4.57
2023-04-23T17:52:30.816Z,4.33
2023-04-23T17:54:59.797Z,4.17
2023-04-23T17:57:27.543Z,4.00
2023-04-23T17:59:59.143Z,4.10
2023-04-23T18:02:26.990Z,3.87
2023-04-23T18:04:55.493Z,4.27
2023-04-23T18:07:23.335Z,3.90
2023-04-23T18:09:51.148Z,4.00
2023-04-23T18:12:18.874Z,3.40
2023-04-23T18:14:46.586Z,4.10
2023-04-23T18:17:17.412Z,3.60
2023-04-23T18:19:45.146Z,4.00
2023-04-23T18:22:12.881Z,4.37
2023-04-23T18:24:40.680Z,3.90
2023-04-23T18:27:12.369Z,4.17
2023-04-23T18:29:42.571Z,3.90
2023-04-23T18:32:13.959Z,3.67
2023-04-23T18:34:45.255Z,4.27
2023-04-23T18:37:33.137Z,3.90
2023-04-23T18:40:01.418Z,3.73
2023-04-23T18:42:29.180Z,3.53
2023-04-23T18:44:57.086Z,4.33
2023-04-23T18:47:31.828Z,3.53
2023-04-23T18:50:05.285Z,5.00
2023-04-23T18:52:33.019Z,3.87
2023-04-23T18:55:00.738Z,4.23
2023-04-23T18:57:28.662Z,3.83
2023-04-23T18:59:56.388Z,4.63
2023-04-23T19:02:34.570Z,3.60
2023-04-23T19:05:04.892Z,4.10
2023-04-23T19:07:33.508Z,4.70
2023-04-23T19:10:01.287Z,4.03
2023-04-23T19:12:29.152Z,4.53
2023-04-23T19:14:56.855Z,3.70
2023-04-23T19:17:24.701Z,5.37
2023-04-23T19:19:52.432Z,3.87
2023-04-23T19:22:23.916Z,5.70
2023-04-23T19:24:52.008Z,4.67
2023-04-23T19:27:20.183Z,4.90
2023-04-23T19:29:48.363Z,4.33
2023-04-23T19:32:16.105Z,4.53
2023-04-23T19:34:45.557Z,4.40
2023-04-23T19:37:13.264Z,4.00
2023-04-23T19:39:42.559Z,3.50
2023-04-23T19:42:11.219Z,4.07
2023-04-23T19:44:38.938Z,4.20
2023-04-23T19:47:06.737Z,3.80
2023-04-23T19:49:35.262Z,3.63
2023-04-23T19:52:04.777Z,3.20
2023-04-23T19:54:32.645Z,3.57
2023-04-23T19:57:02.024Z,3.00
2023-04-23T19:59:29.721Z,3.87
2023-04-23T20:01:57.432Z,3.10
2023-04-23T20:04:25.277Z,3.80
2023-04-23T20:06:53.009Z,3.23
2023-04-23T20:09:21.822Z,3.57
2023-04-23T20:11:49.551Z,3.40
2023-04-23T20:14:18.742Z,4.10
2023-04-23T20:16:47.276Z,4.50
2023-04-23T20:19:15.616Z,4.17
2023-04-23T20:21:43.659Z,3.23
2023-04-23T20:24:12.109Z,4.27
2023-04-23T20:26:41.864Z,4.17
2023-04-23T20:29:09.947Z,3.50
2023-04-23T20:31:39.149Z,2.97
2023-04-23T20:34:06.903Z,3.10
2023-04-23T20:36:35.735Z,2.93
2023-04-23T20:39:04.952Z,3.10
2023-04-23T20:41:34.353Z,3.47
2023-04-23T20:44:03.086Z,2.90
2023-04-23T20:46:32.565Z,2.70
2023-04-23T20:49:03.177Z,3.00
2023-04-23T20:51:33.134Z,3.13
2023-04-23T20:54:01.473Z,3.50
2023-04-23T20:56:29.651Z,3.00
2023-04-23T20:58:58.584Z,3.20
2023-04-23T21:01:26.508Z,3.33
2023-04-23T21:03:54.788Z,3.40
2023-04-23T21:06:24.031Z,2.67
2023-04-23T21:08:51.781Z,2.97
2023-04-23T21:11:21.125Z,3.00
2023-04-23T21:13:48.883Z,2.90
2023-04-23T21:16:16.776Z,2.97
2023-04-23T21:18:44.773Z,3.10
2023-04-23T21:21:12.546Z,2.60
2023-04-23T21:23:42.744Z,3.07
2023-04-23T21:26:10.826Z,2.40
2023-04-23T21:28:38.541Z,2.30
2023-04-23T21:31:14.574Z,2.70
2023-04-23T21:33:42.286Z,2.10
2023-04-23T21:36:09.991Z,2.00
2023-04-23T21:38:37.757Z,2.33
2023-04-23T21:41:07.552Z,2.50
2023-04-23T21:43:35.597Z,2.07
2023-04-23T21:46:03.553Z,2.03
2023-04-23T21:48:31.955Z,2.10
2023-04-23T21:50:59.943Z,2.37
2023-04-23T21:53:27.645Z,2.50
2023-04-23T21:55:55.515Z,2.00
2023-04-23T21:58:24.555Z,1.87
2023-04-23T22:00:52.716Z,2.90
2023-04-23T22:03:37.805Z,2.20
2023-04-23T22:06:08.070Z,1.80
2023-04-23T22:08:37.815Z,2.10
2023-04-23T22:11:06.821Z,2.83
2023-04-23T22:13:36.519Z,1.97
2023-04-23T22:16:08.654Z,2.20
2023-04-23T22:18:41.547Z,2.57
2023-04-23T22:21:09.280Z,1.50
2023-04-23T22:23:36.962Z,1.87
2023-04-23T22:26:04.796Z,2.20
2023-04-23T22:28:33.590Z,2.40
2023-04-23T22:31:02.645Z,2.13
2023-04-23T22:33:30.453Z,1.80
2023-04-23T22:35:59.019Z,2.50
2023-04-23T22:38:26.828Z,1.70
2023-04-23T22:40:54.640Z,2.07
2023-04-23T22:43:22.575Z,1.90
2023-04-23T22:45:50.368Z,1.70
2023-04-23T22:48:19.490Z,1.57
2023-04-23T22:50:47.195Z,1.70
2023-04-23T22:53:14.904Z,1.67
2023-04-23T22:55:42.670Z,1.80
2023-04-23T22:58:10.421Z,1.83
2023-04-23T23:00:38.148Z,1.63
2023-04-23T23:03:06.059Z,1.47
2023-04-23T23:05:35.399Z,1.93
2023-04-23T23:08:03.121Z,1.47
2023-04-23T23:10:31.644Z,1.60
2023-04-23T23:12:59.626Z,1.50
2023-04-23T23:15:27.315Z,1.40
2023-04-23T23:17:55.053Z,1.80
2023-04-23T23:20:22.808Z,1.53
2023-04-23T23:22:51.908Z,1.40
2023-04-23T23:25:19.766Z,1.30
2023-04-23T23:27:47.599Z,1.40
2023-04-23T23:30:15.569Z,1.60
2023-04-23T23:32:43.324Z,1.70
2023-04-23T23:35:11.485Z,1.50
2023-04-23T23:37:39.318Z,1.73
2023-04-23T23:40:10.587Z,1.57
2023-04-23T23:42:38.388Z,1.53
2023-04-23T23:45:07.092Z,1.67
2023-04-23T23:47:35.025Z,1.77
2023-04-23T23:50:03.324Z,1.70
2023-04-23T23:52:31.050Z,1.43
2023-04-23T23:54:58.747Z,1.70
2023-04-23T23:57:27.999Z,1.30
2023-04-23T23:59:56.061Z,1.10
